Time;durP1;ratioP1;P1;durP2;ratioP2;P2;SDS_P1;SDS_P2;PMS_P1;PMS_P2;Temp;Humidity;BMP_temperature;BMP_pressure;BME280_temperature;BME280_humidity;BME280_pressure;Samples;Min_cycle;Max_cycle;Signal;HPM_P1;HPM_P2
2023/11/21 00:01:54;;;;;;;18.05;11.32;;;7.40;99.90;;;;;;5044500;28;20061;-60
2023/11/21 00:04:20;;;;;;;15.52;10.40;;;7.40;99.90;;;;;;5044313;28;20084;-58
2023/11/21 00:06:46;;;;;;;14.65;10.02;;;7.40;99.90;;;;;;5046674;28;20745;-59
2023/11/21 00:09:12;;;;;;;21.80;11.57;;;7.30;99.90;;;;;;5040498;28;20124;-57
2023/11/21 00:11:38;;;;;;;19.98;10.90;;;7.40;99.90;;;;;;5042942;28;20033;-58
2023/11/21 00:14:04;;;;;;;18.42;10.90;;;7.40;99.90;;;;;;5041774;28;20044;-59
2023/11/21 00:16:30;;;;;;;17.17;10.68;;;7.40;99.90;;;;;;5038406;28;20116;-59
2023/11/21 00:18:55;;;;;;;17.35;9.90;;;7.40;99.90;;;;;;5043764;28;20544;-58
2023/11/21 00:21:21;;;;;;;15.77;10.15;;;7.20;99.90;;;;;;5044487;28;20033;-60
2023/11/21 00:23:46;;;;;;;15.45;10.10;;;7.30;99.90;;;;;;5008656;28;20033;-60
2023/11/21 00:26:12;;;;;;;16.08;10.07;;;7.20;99.90;;;;;;5040740;28;20037;-57
2023/11/21 00:28:37;;;;;;;18.20;9.73;;;7.20;99.90;;;;;;5038213;28;20082;-59
2023/11/21 00:31:04;;;;;;;14.82;9.25;;;7.10;99.90;;;;;;5041604;28;20084;-57
2023/11/21 00:33:29;;;;;;;15.18;9.57;;;7.10;99.90;;;;;;5039150;28;20033;-57
2023/11/21 00:35:55;;;;;;;12.30;8.43;;;7.10;99.90;;;;;;5041049;28;20025;-60
2023/11/21 00:38:20;;;;;;;17.30;10.02;;;7.10;99.90;;;;;;5024030;28;20437;-59
2023/11/21 00:40:46;;;;;;;17.08;10.48;;;6.90;99.90;;;;;;5040871;28;20021;-59
2023/11/21 00:43:12;;;;;;;16.42;9.57;;;6.90;99.90;;;;;;5041291;28;20049;-58
2023/11/21 00:45:37;;;;;;;18.33;10.32;;;6.90;99.90;;;;;;5039209;28;20021;-58
2023/11/21 00:48:04;;;;;;;20.90;11.23;;;6.80;99.90;;;;;;5029241;28;20025;-58
2023/11/21 00:50:30;;;;;;;14.18;9.68;;;6.80;99.90;;;;;;5036547;28;20032;-60
2023/11/21 00:52:56;;;;;;;16.92;10.38;;;6.90;99.90;;;;;;5043029;28;20072;-60
2023/11/21 00:55:22;;;;;;;16.10;10.25;;;6.90;99.90;;;;;;5042243;28;20025;-60
2023/11/21 00:57:47;;;;;;;18.05;11.05;;;6.90;99.90;;;;;;5043005;28;20036;-59
2023/11/21 01:00:16;;;;;;;20.15;11.05;;;7.00;99.90;;;;;;5040048;28;20030;-59
2023/11/21 01:02:45;;;;;;;20.15;11.40;;;7.00;99.90;;;;;;5043445;28;20024;-59
2023/11/21 01:05:11;;;;;;;18.23;10.98;;;6.90;99.90;;;;;;5038922;28;20107;-58
2023/11/21 01:07:36;;;;;;;16.63;10.32;;;6.90;99.90;;;;;;5043128;28;20107;-59
2023/11/21 01:10:07;;;;;;;17.70;10.63;;;6.90;99.90;;;;;;5040722;28;20021;-57
2023/11/21 01:12:34;;;;;;;15.35;11.07;;;6.80;99.90;;;;;;5041168;28;20053;-60
2023/11/21 01:15:00;;;;;;;15.68;10.00;;;6.80;99.90;;;;;;5042853;28;20029;-59
2023/11/21 01:17:27;;;;;;;20.15;10.98;;;6.80;99.90;;;;;;5040474;28;20025;-59
2023/11/21 01:19:52;;;;;;;17.23;10.23;;;6.80;99.90;;;;;;5038190;28;20138;-58
2023/11/21 01:22:22;;;;;;;16.77;10.57;;;6.80;99.90;;;;;;5046325;28;20161;-60
2023/11/21 01:24:47;;;;;;;17.92;9.60;;;6.80;99.90;;;;;;5046511;28;20542;-60
2023/11/21 01:27:13;;;;;;;13.73;8.63;;;6.90;99.90;;;;;;5038217;28;20033;-60
2023/11/21 01:29:38;;;;;;;11.73;8.27;;;6.80;99.90;;;;;;5039845;28;20029;-60
2023/11/21 01:32:04;;;;;;;13.40;8.40;;;6.80;99.90;;;;;;5039095;28;20030;-59
2023/11/21 01:34:30;;;;;;;13.90;7.93;;;6.80;99.90;;;;;;5039490;28;20108;-59
2023/11/21 01:36:56;;;;;;;13.27;7.65;;;6.80;99.90;;;;;;5021483;28;20596;-59
2023/11/21 01:39:23;;;;;;;10.13;7.80;;;6.70;99.90;;;;;;5039286;28;20059;-59
2023/11/21 01:41:51;;;;;;;11.70;7.53;;;6.70;99.90;;;;;;5038695;28;20040;-60
2023/11/21 01:44:16;;;;;;;14.90;7.85;;;6.60;99.90;;;;;;5029603;28;20323;-60
2023/11/21 01:46:42;;;;;;;10.18;7.15;;;6.60;99.90;;;;;;5043302;28;20086;-60
2023/11/21 01:49:12;;;;;;;12.38;7.43;;;6.60;99.90;;;;;;5042692;28;20030;-59
2023/11/21 01:51:39;;;;;;;9.18;7.00;;;6.60;99.90;;;;;;5037881;28;20642;-60
2023/11/21 01:54:05;;;;;;;10.25;6.55;;;6.60;99.90;;;;;;5038356;28;20028;-59
2023/11/21 01:56:31;;;;;;;9.10;6.63;;;6.60;99.90;;;;;;5038151;28;20040;-60
2023/11/21 01:58:57;;;;;;;11.32;6.60;;;6.50;99.90;;;;;;5037067;28;20059;-60
2023/11/21 02:01:23;;;;;;;9.40;6.32;;;6.50;99.90;;;;;;5026637;28;20586;-58
2023/11/21 02:03:48;;;;;;;10.90;5.85;;;6.50;99.90;;;;;;5042563;28;20025;-59
2023/11/21 02:06:14;;;;;;;8.85;5.88;;;6.50;99.90;;;;;;5040635;28;20390;-58
2023/11/21 02:08:42;;;;;;;7.13;5.18;;;6.50;99.90;;;;;;5040244;28;20116;-56
2023/11/21 02:11:09;;;;;;;8.27;5.53;;;6.40;99.90;;;;;;5040867;28;20152;-58
2023/11/21 02:13:35;;;;;;;8.48;5.55;;;6.40;99.90;;;;;;5036474;28;20070;-60
2023/11/21 02:16:02;;;;;;;7.25;5.00;;;6.40;99.90;;;;;;5040075;28;20104;-59
2023/11/21 02:18:28;;;;;;;8.07;5.32;;;6.40;99.90;;;;;;5040942;28;20516;-59
2023/11/21 02:20:55;;;;;;;6.80;5.05;;;6.40;99.90;;;;;;5042858;28;20016;-58
2023/11/21 02:23:23;;;;;;;8.55;5.40;;;6.30;99.90;;;;;;5039663;28;20033;-58
2023/11/21 02:25:48;;;;;;;7.50;4.78;;;6.30;99.90;;;;;;5037978;28;20549;-59
2023/11/21 02:28:16;;;;;;;6.90;5.30;;;6.30;99.90;;;;;;5040173;28;20036;-59
2023/11/21 02:30:42;;;;;;;9.45;5.70;;;6.20;99.90;;;;;;5039784;28;20104;-60
2023/11/21 02:33:08;;;;;;;6.47;5.20;;;6.20;99.90;;;;;;5036975;28;20028;-59
2023/11/21 02:35:34;;;;;;;9.93;5.40;;;6.30;99.90;;;;;;5022826;28;20029;-58
2023/11/21 02:38:00;;;;;;;7.20;4.68;;;6.30;99.90;;;;;;5024553;28;20021;-59
2023/11/21 02:40:26;;;;;;;8.10;5.03;;;6.30;99.90;;;;;;5037923;28;20401;-58
2023/11/21 02:42:52;;;;;;;9.15;5.95;;;6.20;99.90;;;;;;5033729;28;20068;-59
2023/11/21 02:45:20;;;;;;;9.65;6.22;;;6.30;99.90;;;;;;5024252;28;20123;-59
2023/11/21 02:47:46;;;;;;;8.05;5.75;;;6.20;99.90;;;;;;5039897;28;20024;-59
2023/11/21 02:50:12;;;;;;;8.48;6.18;;;6.20;99.90;;;;;;5040930;28;20039;-57
2023/11/21 02:52:39;;;;;;;10.57;6.05;;;6.20;99.90;;;;;;5039096;28;20143;-58
2023/11/21 02:55:07;;;;;;;9.23;6.18;;;6.20;99.90;;;;;;5040209;28;20481;-57
2023/11/21 02:57:33;;;;;;;9.77;6.25;;;6.20;99.90;;;;;;5036680;28;20108;-57
2023/11/21 02:59:59;;;;;;;9.23;6.82;;;6.20;99.90;;;;;;5042573;28;20047;-57
2023/11/21 03:02:25;;;;;;;9.75;6.60;;;6.20;99.90;;;;;;5040483;28;20500;-57
2023/11/21 03:04:51;;;;;;;9.25;6.85;;;6.20;99.90;;;;;;5041993;28;20117;-59
2023/11/21 03:07:19;;;;;;;9.00;6.20;;;6.20;99.90;;;;;;5041250;28;20037;-59
2023/11/21 03:09:45;;;;;;;10.23;6.68;;;6.20;99.90;;;;;;5043582;28;20063;-57
2023/11/21 03:12:12;;;;;;;10.48;6.95;;;6.10;99.90;;;;;;5036550;28;20028;-57
2023/11/21 03:14:38;;;;;;;7.55;5.82;;;6.10;99.90;;;;;;5042361;28;20025;-58
2023/11/21 03:17:04;;;;;;;10.23;6.85;;;6.10;99.90;;;;;;5033826;28;20076;-58
2023/11/21 03:19:30;;;;;;;10.90;7.50;;;6.10;99.90;;;;;;5040128;28;20025;-59
2023/11/21 03:21:56;;;;;;;9.57;6.72;;;6.10;99.90;;;;;;5019340;28;20039;-58
2023/11/21 03:24:22;;;;;;;9.85;6.60;;;6.10;99.90;;;;;;5040676;28;20680;-58
2023/11/21 03:26:48;;;;;;;8.98;6.72;;;6.10;99.90;;;;;;5037686;28;20515;-57
2023/11/21 03:29:14;;;;;;;10.32;7.63;;;6.10;99.90;;;;;;5040248;28;20049;-56
2023/11/21 03:31:40;;;;;;;10.13;7.18;;;6.00;99.90;;;;;;5042241;28;20024;-58
2023/11/21 03:34:06;;;;;;;10.35;7.15;;;6.10;99.90;;;;;;5043479;28;21786;-58
2023/11/21 03:36:31;;;;;;;8.27;6.60;;;6.00;99.90;;;;;;5043388;28;20029;-52
2023/11/21 03:38:57;;;;;;;10.07;7.07;;;6.10;99.90;;;;;;5027075;28;20025;-58
2023/11/21 03:41:22;;;;;;;8.30;6.30;;;6.10;99.90;;;;;;5046137;28;20037;-57
2023/11/21 03:43:48;;;;;;;10.15;6.22;;;6.00;99.90;;;;;;5046485;28;20044;-57
2023/11/21 03:46:14;;;;;;;10.90;6.03;;;6.00;99.90;;;;;;5048067;28;20031;-57
2023/11/21 03:48:39;;;;;;;8.35;6.00;;;6.10;99.90;;;;;;5050790;28;20056;-58
2023/11/21 03:51:05;;;;;;;9.43;6.97;;;6.00;99.90;;;;;;5052589;28;20115;-57
2023/11/21 03:53:31;;;;;;;8.40;6.20;;;6.00;99.90;;;;;;5031981;28;20036;-58
2023/11/21 03:55:57;;;;;;;10.07;6.60;;;6.00;99.90;;;;;;5081217;22;20048;-55
2023/11/21 03:58:23;;;;;;;9.25;6.35;;;6.00;99.90;;;;;;5051950;28;20045;-55
2023/11/21 04:00:51;;;;;;;9.27;6.07;;;6.00;99.90;;;;;;5049659;28;20440;-54
2023/11/21 04:03:17;;;;;;;8.75;6.32;;;6.00;99.90;;;;;;5030699;28;20106;-57
2023/11/21 04:05:42;;;;;;;8.43;6.35;;;6.00;99.90;;;;;;5054673;28;20501;-57
2023/11/21 04:08:08;;;;;;;11.20;6.35;;;6.00;99.90;;;;;;5055044;28;20568;-54
2023/11/21 04:10:34;;;;;;;9.77;6.18;;;6.00;99.90;;;;;;5057803;28;20100;-57
2023/11/21 04:13:00;;;;;;;8.30;6.25;;;5.90;99.90;;;;;;5031029;28;20032;-55
2023/11/21 04:15:26;;;;;;;10.32;6.50;;;6.00;99.90;;;;;;5048319;28;20048;-55
2023/11/21 04:17:51;;;;;;;7.72;5.95;;;6.00;99.90;;;;;;5053793;28;21906;-55
2023/11/21 04:20:17;;;;;;;5.88;5.05;;;6.00;99.90;;;;;;5051540;28;20028;-52
2023/11/21 04:22:44;;;;;;;8.82;5.65;;;5.90;99.90;;;;;;5030929;28;20196;-58
2023/11/21 04:25:11;;;;;;;7.38;5.25;;;5.90;99.90;;;;;;5036517;28;20068;-56
2023/11/21 04:27:38;;;;;;;7.55;5.75;;;5.90;99.90;;;;;;5046200;28;20020;-49
2023/11/21 04:30:05;;;;;;;7.13;5.43;;;5.90;99.90;;;;;;5046884;28;20170;-53
2023/11/21 04:32:30;;;;;;;6.85;5.47;;;6.00;99.90;;;;;;5056662;28;20039;-53
2023/11/21 04:34:56;;;;;;;9.07;5.65;;;6.00;99.90;;;;;;5056982;28;20017;-54
2023/11/21 04:37:22;;;;;;;10.57;5.82;;;6.00;99.90;;;;;;5060302;28;20028;-56
2023/11/21 04:39:48;;;;;;;8.07;5.75;;;6.00;99.90;;;;;;5041320;28;20501;-50
2023/11/21 04:42:13;;;;;;;8.75;5.53;;;6.00;99.90;;;;;;5055611;28;20040;-57
2023/11/21 04:44:41;;;;;;;8.85;5.88;;;6.00;99.90;;;;;;5056904;28;20716;-49
2023/11/21 04:47:07;;;;;;;8.60;5.72;;;6.00;99.90;;;;;;5042735;28;20029;-51
2023/11/21 04:49:33;;;;;;;8.85;5.85;;;6.00;99.90;;;;;;5043079;28;20565;-52
2023/11/21 04:51:59;;;;;;;8.07;5.82;;;6.00;99.90;;;;;;5049876;28;20033;-51
2023/11/21 04:54:24;;;;;;;7.07;5.20;;;6.00;99.90;;;;;;5025225;28;20032;-52
2023/11/21 04:56:50;;;;;;;7.57;5.82;;;5.90;99.90;;;;;;5044778;28;20035;-52
2023/11/21 04:59:15;;;;;;;6.93;5.43;;;5.90;99.90;;;;;;5030607;28;20017;-51
2023/11/21 05:01:41;;;;;;;8.05;5.60;;;5.90;99.90;;;;;;5047210;28;20025;-48
2023/11/21 05:04:08;;;;;;;8.40;5.70;;;5.90;99.90;;;;;;5044601;28;20090;-53
2023/11/21 05:06:34;;;;;;;7.68;5.22;;;6.00;99.90;;;;;;5051069;28;20031;-51
2023/11/21 05:08:59;;;;;;;6.97;5.22;;;5.90;99.90;;;;;;5049510;28;20029;-49
2023/11/21 05:11:32;;;;;;;9.63;5.78;;;5.90;99.90;;;;;;5053342;28;20605;-49
2023/11/21 05:13:58;;;;;;;9.40;5.32;;;5.90;99.90;;;;;;5047580;28;20052;-54
2023/11/21 05:16:27;;;;;;;7.93;5.53;;;5.90;99.90;;;;;;5045691;28;20031;-54
2023/11/21 05:18:52;;;;;;;8.73;5.85;;;5.90;99.90;;;;;;5046030;28;20110;-58
2023/11/21 05:21:20;;;;;;;7.55;5.35;;;5.90;99.90;;;;;;5042961;28;20314;-55
2023/11/21 05:23:46;;;;;;;7.32;5.90;;;5.90;99.90;;;;;;5044405;28;20112;-48
2023/11/21 05:26:11;;;;;;;7.03;5.03;;;5.90;99.90;;;;;;5044234;28;20088;-52
2023/11/21 05:28:37;;;;;;;8.65;6.35;;;5.90;99.90;;;;;;5029618;28;20485;-52
2023/11/21 05:31:02;;;;;;;8.77;5.53;;;5.90;99.90;;;;;;5044061;28;20025;-56
2023/11/21 05:33:28;;;;;;;8.02;5.75;;;5.90;99.90;;;;;;5045471;28;20056;-53
2023/11/21 05:35:53;;;;;;;7.60;6.38;;;5.90;99.90;;;;;;5043134;28;20029;-51
2023/11/21 05:38:21;;;;;;;8.57;5.50;;;5.90;99.90;;;;;;5043547;28;20028;-55
2023/11/21 05:40:47;;;;;;;9.70;5.47;;;5.90;99.90;;;;;;5046250;28;20023;-51
2023/11/21 05:43:13;;;;;;;7.60;6.13;;;5.90;99.90;;;;;;5052639;28;20055;-55
2023/11/21 05:45:38;;;;;;;7.95;6.32;;;5.90;99.90;;;;;;5047989;28;20033;-52
2023/11/21 05:48:04;;;;;;;10.05;5.97;;;5.90;99.90;;;;;;5045451;28;20122;-52
2023/11/21 05:50:30;;;;;;;7.60;5.47;;;5.80;99.90;;;;;;5048756;28;20505;-49
2023/11/21 05:52:57;;;;;;;8.18;5.75;;;5.80;99.90;;;;;;5053552;28;20019;-56
2023/11/21 05:55:25;;;;;;;7.85;5.03;;;5.90;99.90;;;;;;5042606;28;20090;-54
2023/11/21 05:57:51;;;;;;;7.10;5.10;;;5.80;99.90;;;;;;5029021;28;20087;-48
2023/11/21 06:00:22;;;;;;;6.85;5.15;;;5.90;99.90;;;;;;5043771;28;20585;-51
2023/11/21 06:02:58;;;;;;;7.25;5.30;;;5.90;99.90;;;;;;5039481;28;20025;-51
2023/11/21 06:05:25;;;;;;;6.03;4.97;;;5.80;99.90;;;;;;5042927;28;20044;-53
2023/11/21 06:07:54;;;;;;;5.93;4.45;;;5.90;99.90;;;;;;5047970;28;20029;-49
2023/11/21 06:10:23;;;;;;;7.32;5.40;;;5.90;99.90;;;;;;5052463;28;20432;-50
2023/11/21 06:12:49;;;;;;;9.45;4.65;;;5.90;99.90;;;;;;5050051;28;20474;-49
2023/11/21 06:15:15;;;;;;;7.97;5.25;;;5.90;99.90;;;;;;5046163;28;20036;-52
2023/11/21 06:17:41;;;;;;;8.10;5.25;;;5.90;99.90;;;;;;5047659;28;20044;-53
2023/11/21 06:20:09;;;;;;;9.85;5.55;;;5.90;99.90;;;;;;5045997;28;20018;-51
2023/11/21 06:22:38;;;;;;;7.38;5.45;;;5.90;99.90;;;;;;5050500;28;20029;-50
2023/11/21 06:25:05;;;;;;;7.97;5.18;;;5.90;99.90;;;;;;5046492;28;20067;-52
2023/11/21 06:27:32;;;;;;;8.02;5.20;;;5.90;99.90;;;;;;5039972;28;20058;-54
2023/11/21 06:29:58;;;;;;;6.32;4.85;;;5.90;99.90;;;;;;5047435;28;20140;-56
2023/11/21 06:32:24;;;;;;;7.28;5.50;;;5.90;99.90;;;;;;5053168;28;20124;-57
2023/11/21 06:34:49;;;;;;;8.55;5.57;;;5.90;99.90;;;;;;5047893;28;20570;-51
2023/11/21 06:37:16;;;;;;;6.78;4.85;;;5.90;99.90;;;;;;5043906;28;20128;-54
2023/11/21 06:39:42;;;;;;;6.72;5.10;;;5.90;99.90;;;;;;5043378;28;20021;-53
2023/11/21 06:42:07;;;;;;;5.32;4.32;;;5.80;99.90;;;;;;5047079;28;20041;-48
2023/11/21 06:44:33;;;;;;;6.40;5.03;;;5.90;99.90;;;;;;5044243;28;20437;-56
2023/11/21 06:46:59;;;;;;;8.20;5.30;;;5.90;99.90;;;;;;5033562;28;20522;-50
2023/11/21 06:49:25;;;;;;;5.78;5.03;;;5.90;99.90;;;;;;5046377;28;20025;-51
2023/11/21 06:51:51;;;;;;;8.13;5.57;;;5.90;99.90;;;;;;5038315;28;20029;-52
2023/11/21 06:54:16;;;;;;;7.47;4.85;;;5.90;99.90;;;;;;5032778;28;20444;-55
2023/11/21 06:56:42;;;;;;;6.13;4.32;;;5.90;99.90;;;;;;5039406;28;20035;-61
2023/11/21 06:59:08;;;;;;;9.50;4.63;;;5.90;99.90;;;;;;5027523;28;20481;-49
2023/11/21 07:01:38;;;;;;;6.70;4.20;;;5.90;99.90;;;;;;5053542;28;20489;-52
2023/11/21 07:04:05;;;;;;;6.57;5.05;;;5.90;99.90;;;;;;5046426;28;20653;-49
2023/11/21 07:06:31;;;;;;;5.68;4.47;;;5.90;99.90;;;;;;5049514;28;20059;-49
2023/11/21 07:08:57;;;;;;;5.25;4.70;;;5.90;99.90;;;;;;5050514;28;20056;-54
2023/11/21 07:11:22;;;;;;;6.43;4.82;;;5.90;99.90;;;;;;5046843;28;20037;-54
2023/11/21 07:13:48;;;;;;;8.32;5.95;;;5.90;99.90;;;;;;5051456;28;20406;-48
2023/11/21 07:16:14;;;;;;;7.90;5.13;;;6.00;99.90;;;;;;5049571;28;20031;-52
2023/11/21 07:18:40;;;;;;;8.05;6.10;;;6.00;99.90;;;;;;5050354;28;20025;-50
2023/11/21 07:21:06;;;;;;;8.90;6.75;;;5.90;99.90;;;;;;5045223;28;20934;-52
2023/11/21 07:23:32;;;;;;;8.35;6.97;;;6.00;99.90;;;;;;5029342;28;20021;-52
2023/11/21 07:25:57;;;;;;;8.13;6.15;;;6.00;99.90;;;;;;5045314;28;20037;-51
2023/11/21 07:28:25;;;;;;;9.20;5.65;;;6.00;99.90;;;;;;5045318;28;20040;-55
2023/11/21 07:30:51;;;;;;;10.65;6.55;;;6.00;99.90;;;;;;5040515;28;20606;-53
2023/11/21 07:33:17;;;;;;;9.35;6.43;;;6.00;99.90;;;;;;5034615;28;20696;-53
2023/11/21 07:35:43;;;;;;;10.00;7.05;;;6.00;99.90;;;;;;5040603;28;20049;-53
2023/11/21 07:38:08;;;;;;;8.55;6.43;;;6.00;99.90;;;;;;5034032;28;20073;-51
2023/11/21 07:40:34;;;;;;;11.50;6.32;;;6.00;99.90;;;;;;5040433;28;20525;-48
2023/11/21 07:42:59;;;;;;;8.73;6.05;;;6.00;99.90;;;;;;5048729;28;20039;-50
2023/11/21 07:45:27;;;;;;;9.45;5.30;;;6.00;99.90;;;;;;5037421;28;20519;-54
2023/11/21 07:47:54;;;;;;;12.52;6.07;;;6.00;99.90;;;;;;5048594;28;20032;-53
2023/11/21 07:50:20;;;;;;;7.53;5.40;;;6.10;99.90;;;;;;5028738;28;20029;-50
2023/11/21 07:52:46;;;;;;;7.50;5.60;;;6.00;99.90;;;;;;5049265;28;20036;-51
2023/11/21 07:55:11;;;;;;;7.78;5.38;;;6.10;99.90;;;;;;5045041;28;20112;-52
2023/11/21 07:57:37;;;;;;;9.30;5.05;;;6.10;99.90;;;;;;5051611;28;20033;-48
2023/11/21 08:00:08;;;;;;;6.47;4.55;;;6.10;99.90;;;;;;5047952;28;20055;-51
2023/11/21 08:02:34;;;;;;;5.18;4.13;;;6.10;99.90;;;;;;5047261;28;20087;-50
2023/11/21 08:05:00;;;;;;;7.18;5.00;;;6.10;99.90;;;;;;5046576;28;20032;-52
2023/11/21 08:07:26;;;;;;;7.78;5.63;;;6.10;99.90;;;;;;5045437;28;20032;-57
2023/11/21 08:09:52;;;;;;;6.65;4.45;;;6.10;99.90;;;;;;5048446;28;20033;-48
2023/11/21 08:12:20;;;;;;;6.63;5.13;;;6.10;99.90;;;;;;5049296;28;20107;-52
2023/11/21 08:14:45;;;;;;;7.43;4.82;;;6.10;99.90;;;;;;5029770;28;20140;-49
2023/11/21 08:17:11;;;;;;;5.63;4.13;;;6.10;99.90;;;;;;5045718;28;20510;-50
2023/11/21 08:19:37;;;;;;;5.97;4.38;;;6.10;99.90;;;;;;5039241;28;20417;-48
2023/11/21 08:22:03;;;;;;;5.25;4.05;;;6.10;99.90;;;;;;5053279;28;20412;-54
2023/11/21 08:24:29;;;;;;;6.65;4.80;;;6.10;99.90;;;;;;5053338;28;20123;-54
2023/11/21 08:26:54;;;;;;;6.18;4.50;;;6.10;99.90;;;;;;5031715;28;20117;-53
2023/11/21 08:29:20;;;;;;;8.25;3.72;;;6.10;99.90;;;;;;5057681;28;20108;-56
2023/11/21 08:31:46;;;;;;;6.63;4.53;;;6.10;99.90;;;;;;5015419;28;20070;-55
2023/11/21 08:34:12;;;;;;;6.22;4.15;;;6.10;99.90;;;;;;5032077;28;20494;-55
2023/11/21 08:36:45;;;;;;;6.43;3.72;;;6.10;99.90;;;;;;5053083;28;20047;-59
2023/11/21 08:39:11;;;;;;;5.55;3.08;;;6.00;99.90;;;;;;5043948;28;20090;-54
2023/11/21 08:41:36;;;;;;;4.72;2.75;;;6.10;99.90;;;;;;5055334;28;20040;-56
2023/11/21 08:44:06;;;;;;;4.00;2.65;;;6.00;99.90;;;;;;5049233;28;20063;-54
2023/11/21 08:46:31;;;;;;;4.38;3.47;;;6.00;99.90;;;;;;5053732;28;20024;-54
2023/11/21 08:48:57;;;;;;;3.67;3.08;;;6.00;99.90;;;;;;5038571;28;20036;-55
2023/11/21 08:51:23;;;;;;;4.28;3.45;;;6.00;99.90;;;;;;5044725;28;20029;-57
2023/11/21 08:53:48;;;;;;;4.85;3.15;;;6.00;99.90;;;;;;5052650;28;20761;-56
2023/11/21 08:56:14;;;;;;;6.40;2.92;;;6.00;99.90;;;;;;5028387;28;20094;-54
2023/11/21 08:58:39;;;;;;;4.72;2.90;;;6.00;99.90;;;;;;5051551;28;20047;-50
2023/11/21 09:01:07;;;;;;;3.78;2.65;;;6.00;99.90;;;;;;5044316;28;20030;-49
2023/11/21 09:03:34;;;;;;;4.45;3.13;;;6.00;99.90;;;;;;5045834;28;20113;-54
2023/11/21 09:06:00;;;;;;;6.72;3.10;;;6.10;99.90;;;;;;5047515;28;20024;-53
2023/11/21 09:08:28;;;;;;;4.50;3.03;;;6.00;99.90;;;;;;5045525;28;20493;-51
2023/11/21 09:10:53;;;;;;;3.28;2.97;;;6.00;99.90;;;;;;5046049;28;20021;-50
2023/11/21 09:13:19;;;;;;;4.68;3.42;;;6.00;99.90;;;;;;5046033;28;20075;-56
2023/11/21 09:15:46;;;;;;;5.43;2.85;;;6.00;99.90;;;;;;5029886;28;20189;-49
2023/11/21 09:18:13;;;;;;;5.03;3.03;;;6.00;99.90;;;;;;5048528;28;20104;-51
2023/11/21 09:20:39;;;;;;;5.50;3.17;;;6.00;99.90;;;;;;5050996;28;20017;-52
2023/11/21 09:23:04;;;;;;;4.53;3.22;;;6.00;99.90;;;;;;5046946;28;20565;-51
2023/11/21 09:25:30;;;;;;;8.45;3.78;;;6.10;99.90;;;;;;5052237;28;20072;-50
2023/11/21 09:27:57;;;;;;;5.03;3.33;;;6.10;99.90;;;;;;5049481;28;20041;-55
2023/11/21 09:30:24;;;;;;;6.88;3.75;;;6.00;99.90;;;;;;5051537;28;20045;-51
2023/11/21 09:32:50;;;;;;;5.15;3.35;;;6.00;99.90;;;;;;5047857;28;20029;-57
2023/11/21 09:35:17;;;;;;;4.72;3.20;;;6.10;99.90;;;;;;5051236;28;20021;-54
2023/11/21 09:37:45;;;;;;;4.70;3.25;;;6.10;99.90;;;;;;5030788;28;20028;-49
2023/11/21 09:40:13;;;;;;;3.47;2.47;;;6.00;99.90;;;;;;5037019;28;20108;-49
2023/11/21 09:42:43;;;;;;;3.33;2.47;;;6.00;99.90;;;;;;5054612;28;20397;-56
2023/11/21 09:45:28;;;;;;;3.38;2.30;;;5.90;99.90;;;;;;5034087;28;20048;-50
2023/11/21 09:47:57;;;;;;;2.88;2.25;;;5.90;99.90;;;;;;5043802;28;20110;-51
2023/11/21 09:50:24;;;;;;;3.45;1.90;;;5.90;99.90;;;;;;5053471;28;20029;-49
2023/11/21 09:53:07;;;;;;;2.05;1.85;;;5.90;99.90;;;;;;5048191;28;20078;-54
2023/11/21 09:55:38;;;;;;;3.10;2.13;;;5.90;99.90;;;;;;5046871;28;20187;-51
2023/11/21 09:58:07;;;;;;;2.80;2.25;;;5.90;99.90;;;;;;5044533;22;20451;-61
2023/11/21 10:00:34;;;;;;;2.70;2.25;;;5.90;99.90;;;;;;5024995;28;20330;-60
2023/11/21 10:02:59;;;;;;;2.50;2.10;;;6.00;99.90;;;;;;5019477;28;20029;-60
2023/11/21 10:05:25;;;;;;;2.45;2.25;;;6.00;99.90;;;;;;5018070;28;20079;-60
2023/11/21 10:07:52;;;;;;;2.72;2.08;;;6.00;99.90;;;;;;5015061;28;20041;-58
2023/11/21 10:10:21;;;;;;;1.98;1.70;;;6.00;99.90;;;;;;5014081;28;20029;-60
2023/11/21 10:12:53;;;;;;;2.88;2.28;;;6.00;99.90;;;;;;5015507;28;20033;-60
2023/11/21 10:15:21;;;;;;;2.13;1.80;;;6.00;99.90;;;;;;4996003;28;20030;-60
2023/11/21 10:17:49;;;;;;;2.13;1.58;;;6.00;99.90;;;;;;5016808;28;20021;-60
2023/11/21 10:20:16;;;;;;;2.60;1.83;;;6.00;99.90;;;;;;5019675;28;20028;-61
2023/11/21 10:22:43;;;;;;;3.53;1.65;;;6.00;99.90;;;;;;5022612;28;20064;-60
2023/11/21 10:25:09;;;;;;;1.75;1.65;;;6.00;99.90;;;;;;5015322;28;20048;-60
2023/11/21 10:27:39;;;;;;;1.92;1.75;;;6.00;99.90;;;;;;5017074;28;20596;-60
2023/11/21 10:30:05;;;;;;;1.75;1.50;;;5.90;99.90;;;;;;5022268;28;20029;-60
2023/11/21 10:32:32;;;;;;;1.63;1.50;;;6.00;99.90;;;;;;5003825;28;20025;-60
2023/11/21 10:35:06;;;;;;;2.33;2.00;;;6.00;99.90;;;;;;5005580;28;20029;-59
2023/11/21 10:37:32;;;;;;;2.03;1.77;;;6.00;99.90;;;;;;5017451;28;20022;-59
2023/11/21 10:39:59;;;;;;;2.17;1.77;;;6.00;99.90;;;;;;5020815;28;20433;-60
2023/11/21 10:42:24;;;;;;;3.47;2.10;;;6.00;99.90;;;;;;5019136;28;20089;-61
2023/11/21 10:44:50;;;;;;;8.30;2.25;;;5.90;99.90;;;;;;5020650;28;20616;-60
2023/11/21 10:47:18;;;;;;;3.72;2.28;;;5.90;99.90;;;;;;5021437;28;20117;-61
2023/11/21 10:49:47;;;;;;;2.25;1.85;;;5.90;99.90;;;;;;5006706;28;20036;-59
2023/11/21 10:52:17;;;;;;;3.65;2.35;;;5.80;99.90;;;;;;5019598;28;20034;-59
2023/11/21 10:54:43;;;;;;;2.42;2.10;;;5.90;99.90;;;;;;5003819;28;20026;-60
2023/11/21 10:57:10;;;;;;;4.90;2.50;;;5.90;99.90;;;;;;5019858;28;20551;-61
2023/11/21 10:59:36;;;;;;;2.63;2.00;;;5.90;99.90;;;;;;5006220;28;20449;-60
2023/11/21 11:02:27;;;;;;;3.60;1.80;;;5.90;99.90;;;;;;5019438;28;20021;-60
2023/11/21 11:04:57;;;;;;;2.90;2.53;;;5.90;99.90;;;;;;5005111;28;20367;-59
2023/11/21 11:07:27;;;;;;;2.35;1.55;;;5.80;99.90;;;;;;5020309;28;20040;-59
2023/11/21 11:09:55;;;;;;;2.17;1.67;;;5.80;99.90;;;;;;5017668;28;20065;-60
2023/11/21 11:12:21;;;;;;;1.88;1.67;;;5.80;99.90;;;;;;5019454;28;20025;-60
2023/11/21 11:14:48;;;;;;;3.58;1.90;;;5.80;99.90;;;;;;5021787;28;20083;-60
2023/11/21 11:17:14;;;;;;;2.25;1.65;;;5.80;99.90;;;;;;5017317;28;20022;-60
2023/11/21 11:19:40;;;;;;;2.00;1.60;;;5.70;99.90;;;;;;5020178;28;20060;-60
2023/11/21 11:22:16;;;;;;;1.75;1.48;;;5.70;99.90;;;;;;5020208;28;20028;-59
2023/11/21 11:25:19;;;;;;;2.17;1.77;;;5.70;99.90;;;;;;5022983;28;20066;-61
2023/11/21 11:28:03;;;;;;;2.15;1.73;;;5.70;99.90;;;;;;5016327;28;20079;-61
2023/11/21 11:30:42;;;;;;;2.17;1.42;;;5.70;99.90;;;;;;5018628;28;20450;-60
2023/11/21 11:33:26;;;;;;;4.55;2.20;;;5.70;99.90;;;;;;5020063;28;20757;-61
2023/11/21 11:36:07;;;;;;;3.70;1.65;;;5.70;99.90;;;;;;5018227;28;20014;-61
2023/11/21 11:38:35;;;;;;;3.80;2.58;;;5.70;99.90;;;;;;5022681;28;20025;-60
2023/11/21 11:41:09;;;;;;;2.05;1.77;;;5.80;99.90;;;;;;5019881;28;20025;-61
2023/11/21 11:43:43;;;;;;;2.97;2.17;;;5.80;99.90;;;;;;5016081;28;20275;-60
2023/11/21 11:46:10;;;;;;;4.38;2.25;;;5.70;99.90;;;;;;5001552;28;20026;-60
2023/11/21 11:48:39;;;;;;;3.25;1.92;;;5.70;99.90;;;;;;5021334;28;20429;-60
2023/11/21 11:51:16;;;;;;;3.33;2.10;;;5.70;99.90;;;;;;5019571;28;20056;-60
2023/11/21 11:53:45;;;;;;;2.65;2.10;;;5.70;99.90;;;;;;5018612;28;20033;-61
2023/11/21 11:56:34;;;;;;;3.03;2.35;;;5.80;99.90;;;;;;5006451;28;20025;-61
2023/11/21 11:59:02;;;;;;;2.70;2.50;;;5.80;99.90;;;;;;5026248;28;20026;-61
2023/11/21 12:01:32;;;;;;;2.72;1.90;;;5.80;99.90;;;;;;5017907;28;20037;-60
2023/11/21 12:04:23;;;;;;;2.78;2.13;;;5.80;99.90;;;;;;5021698;28;20092;-60
2023/11/21 12:06:52;;;;;;;4.05;2.33;;;5.80;99.90;;;;;;5019900;28;20021;-60
2023/11/21 12:09:26;;;;;;;2.40;1.95;;;5.80;99.90;;;;;;5024369;28;20017;-61
2023/11/21 12:11:53;;;;;;;3.70;2.00;;;5.80;99.90;;;;;;5024092;28;20059;-61
2023/11/21 12:14:18;;;;;;;4.15;1.92;;;5.80;99.90;;;;;;5024573;28;20057;-60
2023/11/21 12:16:44;;;;;;;3.72;2.40;;;5.70;99.90;;;;;;5021465;28;20060;-61
2023/11/21 12:19:13;;;;;;;4.72;2.08;;;5.70;99.90;;;;;;5018048;28;20490;-61
2023/11/21 12:21:43;;;;;;;2.22;1.90;;;5.60;99.90;;;;;;5023243;28;20034;-60
2023/11/21 12:24:09;;;;;;;2.25;1.92;;;5.60;99.90;;;;;;5023076;28;20502;-59
2023/11/21 12:26:38;;;;;;;2.85;2.00;;;5.60;99.90;;;;;;5026695;28;20040;-61
2023/11/21 12:29:04;;;;;;;3.22;2.63;;;5.60;99.90;;;;;;5020416;28;20084;-60
2023/11/21 12:31:30;;;;;;;3.05;1.80;;;5.60;99.90;;;;;;5021921;28;20029;-59
2023/11/21 12:33:57;;;;;;;3.47;1.80;;;5.50;99.90;;;;;;5023055;28;20022;-61
2023/11/21 12:36:23;;;;;;;3.55;2.03;;;5.50;99.90;;;;;;5024580;28;20029;-61
2023/11/21 12:38:48;;;;;;;3.42;2.20;;;5.50;99.90;;;;;;5024499;28;20022;-61
2023/11/21 12:41:17;;;;;;;2.05;1.83;;;5.40;99.90;;;;;;5022213;28;20513;-61
2023/11/21 12:43:43;;;;;;;2.30;1.90;;;5.40;99.90;;;;;;5022371;28;20509;-60
2023/11/21 12:46:10;;;;;;;1.95;1.77;;;5.40;99.90;;;;;;5007469;28;20489;-60
2023/11/21 12:48:39;;;;;;;3.33;1.63;;;5.40;99.90;;;;;;5023160;28;20473;-61
2023/11/21 12:51:06;;;;;;;3.22;2.47;;;5.40;99.90;;;;;;5023594;28;20017;-61
2023/11/21 12:53:36;;;;;;;2.90;2.10;;;5.40;99.90;;;;;;5025296;28;20567;-61